createdAt,value
2019-04-29T00:00:59.977Z,12.60
2019-04-29T00:03:28.483Z,12.50
2019-04-29T00:05:57.241Z,12.50
2019-04-29T00:08:25.857Z,12.50
2019-04-29T00:10:54.530Z,12.40
2019-04-29T00:13:23.443Z,12.40
2019-04-29T00:16:08.575Z,12.40
2019-04-29T00:18:53.953Z,12.30
2019-04-29T00:21:23.382Z,12.20
2019-04-29T00:24:03.314Z,12.20
2019-04-29T00:26:22.693Z,12.20
2019-04-29T00:28:51.443Z,12.10
2019-04-29T00:31:20.037Z,12.10
2019-04-29T00:33:48.560Z,12.20
2019-04-29T00:36:18.757Z,12.20
2019-04-29T00:38:48.861Z,12.20
2019-04-29T00:41:21.734Z,12.20
2019-04-29T00:43:54.718Z,12.20
2019-04-29T00:46:23.332Z,12.20
2019-04-29T00:48:51.790Z,12.20
2019-04-29T00:51:20.306Z,12.20
2019-04-29T00:53:50.390Z,12.20
2019-04-29T00:56:18.917Z,12.20
2019-04-29T00:58:47.489Z,12.10
2019-04-29T01:01:17.843Z,12.20
2019-04-29T01:03:46.462Z,12.10
2019-04-29T01:06:14.948Z,12.10
2019-04-29T01:08:44.127Z,12.10
2019-04-29T01:11:12.694Z,12.00
2019-04-29T01:13:41.260Z,12.00
2019-04-29T01:16:09.717Z,12.00
2019-04-29T01:18:38.360Z,11.90
2019-04-29T01:21:07.233Z,11.90
2019-04-29T01:23:35.776Z,11.90
2019-04-29T01:26:15.080Z,11.80
2019-04-29T01:28:57.174Z,11.80
2019-04-29T01:31:27.318Z,11.70
2019-04-29T01:33:57.503Z,11.60
2019-04-29T01:36:27.608Z,11.60
2019-04-29T01:38:57.771Z,11.50
2019-04-29T01:41:43.122Z,11.50
2019-04-29T01:44:12.270Z,11.40
2019-04-29T01:46:40.767Z,11.20
2019-04-29T01:49:09.592Z,11.20
2019-04-29T01:54:06.966Z,11.10
2019-04-29T01:56:35.454Z,11.10
2019-04-29T01:59:04.110Z,11.10
2019-04-29T02:01:32.640Z,11.10
2019-04-29T02:04:01.270Z,11.10
2019-04-29T02:06:29.938Z,11.10
2019-04-29T02:08:58.467Z,11.10
2019-04-29T02:11:27.058Z,11.10
2019-04-29T02:13:55.522Z,11.10
2019-04-29T02:16:24.095Z,11.10
2019-04-29T02:18:52.561Z,11.10
2019-04-29T02:21:21.037Z,11.20
2019-04-29T02:23:53.840Z,11.20
2019-04-29T02:26:22.355Z,11.20
2019-04-29T02:28:50.819Z,11.30
2019-04-29T02:31:37.379Z,11.30
2019-04-29T02:34:06.515Z,11.30
2019-04-29T02:36:35.204Z,11.30
2019-04-29T02:39:19.135Z,11.30
2019-04-29T02:41:58.074Z,11.30
2019-04-29T02:44:26.644Z,11.20
2019-04-29T02:46:55.087Z,11.20
2019-04-29T02:49:23.632Z,11.20
2019-04-29T02:51:53.255Z,11.10
2019-04-29T02:54:23.730Z,11.20
2019-04-29T02:57:05.481Z,11.10
2019-04-29T02:59:38.258Z,11.10
2019-04-29T03:02:24.808Z,11.10
2019-04-29T03:05:00.957Z,11.10
2019-04-29T03:07:29.531Z,11.00
2019-04-29T03:09:58.186Z,11.10
2019-04-29T03:12:26.702Z,11.10
2019-04-29T03:14:55.410Z,11.10
2019-04-29T03:17:23.990Z,11.20
2019-04-29T03:20:10.396Z,11.20
2019-04-29T03:22:40.560Z,11.20
2019-04-29T03:25:09.273Z,11.20
2019-04-29T03:27:37.739Z,11.20
2019-04-29T03:30:06.702Z,11.20
2019-04-29T03:32:35.280Z,11.20
2019-04-29T03:35:04.349Z,11.20
2019-04-29T03:37:32.872Z,11.20
2019-04-29T03:40:01.487Z,11.30
2019-04-29T03:42:30.163Z,11.20
2019-04-29T03:44:58.723Z,11.20
2019-04-29T03:47:27.191Z,11.30
2019-04-29T03:49:55.924Z,11.30
2019-04-29T03:52:24.418Z,11.30
2019-04-29T03:54:52.962Z,11.20
2019-04-29T03:57:21.541Z,11.20
2019-04-29T03:59:50.015Z,11.20
2019-04-29T04:02:32.091Z,11.20
2019-04-29T04:05:18.308Z,11.20
2019-04-29T04:07:57.146Z,11.10
2019-04-29T04:10:25.652Z,11.10
2019-04-29T04:12:54.132Z,11.00
2019-04-29T04:15:22.573Z,11.00
2019-04-29T04:17:52.707Z,11.00
2019-04-29T04:20:21.552Z,11.00
2019-04-29T04:22:51.931Z,11.10
2019-04-29T04:25:20.385Z,11.10
2019-04-29T04:27:49.042Z,11.10
2019-04-29T04:30:19.352Z,11.10
2019-04-29T04:32:47.872Z,11.20
2019-04-29T04:35:16.675Z,11.20
2019-04-29T04:37:45.264Z,11.20
2019-04-29T04:40:15.918Z,11.20
2019-04-29T04:42:44.430Z,11.30
2019-04-29T04:45:13.333Z,11.30
2019-04-29T04:47:41.821Z,11.40
2019-04-29T04:50:10.693Z,11.30
2019-04-29T04:52:39.208Z,11.40
2019-04-29T04:55:08.353Z,11.40
2019-04-29T04:57:36.815Z,11.50
2019-04-29T05:00:14.009Z,11.50
2019-04-29T05:02:42.545Z,11.60
2019-04-29T05:05:11.310Z,11.60
2019-04-29T05:07:39.791Z,11.60
2019-04-29T05:10:08.623Z,11.60
2019-04-29T05:12:37.239Z,11.70
2019-04-29T05:15:06.885Z,11.70
2019-04-29T05:17:36.878Z,11.70
2019-04-29T05:20:06.581Z,11.70
2019-04-29T05:22:35.065Z,11.80
2019-04-29T05:25:05.766Z,11.80
2019-04-29T05:27:34.516Z,11.80
2019-04-29T05:30:03.685Z,11.80
2019-04-29T05:32:32.339Z,11.80
2019-04-29T05:35:08.249Z,11.80
2019-04-29T05:37:38.411Z,11.80
2019-04-29T05:40:07.569Z,11.90
2019-04-29T05:42:36.094Z,11.90
2019-04-29T05:45:17.767Z,11.90
2019-04-29T05:47:48.034Z,11.90
2019-04-29T05:50:27.383Z,11.90
2019-04-29T05:53:16.282Z,11.90
2019-04-29T05:55:45.197Z,12.00
2019-04-29T05:58:13.677Z,12.00
2019-04-29T06:00:45.113Z,12.00
2019-04-29T06:03:14.243Z,12.00
2019-04-29T06:05:42.823Z,12.00
2019-04-29T06:08:11.270Z,12.10
2019-04-29T06:10:42.056Z,12.20
2019-04-29T06:13:09.945Z,12.20
2019-04-29T06:15:38.487Z,12.20
2019-04-29T06:18:07.070Z,12.30
2019-04-29T06:20:35.717Z,12.30
2019-04-29T06:23:04.411Z,12.40
2019-04-29T06:25:32.899Z,12.40
2019-04-29T06:28:01.463Z,12.40
2019-04-29T06:30:29.923Z,12.40
2019-04-29T06:32:58.500Z,12.50
2019-04-29T06:35:27.350Z,12.50
2019-04-29T06:37:55.815Z,12.50
2019-04-29T06:40:24.552Z,12.50
2019-04-29T06:42:54.862Z,12.60
2019-04-29T06:45:23.422Z,12.60
2019-04-29T06:47:52.235Z,12.70
2019-04-29T06:50:20.848Z,12.70
2019-04-29T06:52:49.380Z,12.80
2019-04-29T06:55:17.842Z,12.80
2019-04-29T06:57:46.302Z,12.90
2019-04-29T07:00:17.553Z,12.90
2019-04-29T07:02:49.420Z,13.00
2019-04-29T07:05:15.772Z,13.00
2019-04-29T07:07:44.472Z,13.10
2019-04-29T07:10:16.560Z,13.00
2019-04-29T07:12:47.468Z,13.10
2019-04-29T07:15:14.456Z,13.10
2019-04-29T07:17:43.056Z,13.10
2019-04-29T07:20:12.443Z,13.20
2019-04-29T07:22:40.982Z,13.20
2019-04-29T07:25:09.659Z,13.20
2019-04-29T07:27:43.035Z,13.20
2019-04-29T07:30:09.539Z,13.20
2019-04-29T07:32:42.288Z,13.30
2019-04-29T07:35:09.997Z,13.20
2019-04-29T07:37:38.929Z,13.30
2019-04-29T07:40:09.311Z,13.30
2019-04-29T07:42:38.141Z,13.40
2019-04-29T07:45:12.195Z,13.40
2019-04-29T07:47:55.409Z,13.40
2019-04-29T07:50:12.783Z,13.40
2019-04-29T07:52:45.675Z,13.50
2019-04-29T07:55:11.970Z,13.50
2019-04-29T07:57:40.781Z,13.50
2019-04-29T08:00:12.781Z,13.50
2019-04-29T08:02:40.240Z,13.60
2019-04-29T08:05:10.252Z,13.60
2019-04-29T08:07:39.233Z,13.70
2019-04-29T08:10:23.241Z,13.70
2019-04-29T08:12:41.990Z,13.80
2019-04-29T08:15:10.983Z,13.80
2019-04-29T08:17:39.780Z,13.90
2019-04-29T08:20:08.962Z,13.90
2019-04-29T08:22:37.479Z,13.90
2019-04-29T08:25:07.871Z,13.90
2019-04-29T08:27:40.739Z,13.90
2019-04-29T08:30:11.314Z,13.90
2019-04-29T08:32:39.411Z,14.00
2019-04-29T08:35:08.163Z,13.90
2019-04-29T08:37:36.707Z,14.00
2019-04-29T08:40:16.245Z,14.00
2019-04-29T08:42:55.878Z,14.10
2019-04-29T08:45:38.958Z,14.10
2019-04-29T08:48:08.784Z,14.10
2019-04-29T08:50:56.725Z,14.20
2019-04-29T08:53:25.195Z,14.20
2019-04-29T08:55:53.625Z,14.20
2019-04-29T08:58:22.102Z,14.30
2019-04-29T09:00:51.303Z,14.30
2019-04-29T09:03:23.456Z,14.30
2019-04-29T09:06:04.295Z,14.30
2019-04-29T09:08:21.227Z,14.40
2019-04-29T09:10:49.933Z,14.40
2019-04-29T09:13:18.429Z,14.30
2019-04-29T09:15:46.883Z,14.30
2019-04-29T09:18:15.355Z,14.40
2019-04-29T09:20:44.073Z,14.50
2019-04-29T09:23:14.173Z,14.40
2019-04-29T09:25:46.669Z,14.40
2019-04-29T09:28:22.415Z,14.40
2019-04-29T09:30:47.211Z,14.60
2019-04-29T09:33:16.062Z,14.60
2019-04-29T09:35:44.503Z,14.60
2019-04-29T09:38:12.969Z,14.60
2019-04-29T09:40:45.579Z,14.70
2019-04-29T09:43:21.363Z,14.70
2019-04-29T09:46:07.245Z,14.80
2019-04-29T09:48:35.716Z,14.90
2019-04-29T09:51:16.585Z,14.90
2019-04-29T09:53:34.595Z,14.90
2019-04-29T09:56:03.141Z,14.90
2019-04-29T09:58:31.584Z,15.00
2019-04-29T10:01:18.759Z,14.90
2019-04-29T10:04:01.847Z,15.00
2019-04-29T10:06:32.011Z,14.90
2019-04-29T10:09:00.551Z,14.90
2019-04-29T10:11:29.062Z,14.90
2019-04-29T10:13:57.543Z,14.80
2019-04-29T10:16:27.619Z,14.90
2019-04-29T10:19:06.978Z,14.90
2019-04-29T10:21:35.571Z,14.90
2019-04-29T10:24:04.552Z,14.90
2019-04-29T10:26:33.128Z,14.80
2019-04-29T10:29:05.821Z,14.90
2019-04-29T10:31:34.268Z,14.90
2019-04-29T10:34:02.810Z,14.90
2019-04-29T10:36:31.240Z,14.90
2019-04-29T10:39:01.366Z,15.00
2019-04-29T10:41:31.449Z,15.00
2019-04-29T10:44:04.478Z,15.00
2019-04-29T10:46:50.676Z,15.10
2019-04-29T10:49:20.798Z,15.10
2019-04-29T10:51:49.235Z,15.20
2019-04-29T10:54:17.798Z,15.10
2019-04-29T10:56:46.892Z,15.20
2019-04-29T10:59:15.499Z,15.20
2019-04-29T11:02:13.385Z,15.20
2019-04-29T11:04:38.033Z,15.20
2019-04-29T11:07:18.448Z,15.20
2019-04-29T11:09:50.742Z,15.20
2019-04-29T11:12:19.699Z,15.20
2019-04-29T11:14:48.323Z,15.20
2019-04-29T11:17:17.338Z,15.30
2019-04-29T11:19:45.895Z,15.30
2019-04-29T11:22:16.015Z,15.30
2019-04-29T11:25:02.183Z,15.30
2019-04-29T11:27:32.293Z,15.30
2019-04-29T11:30:02.941Z,15.20
2019-04-29T11:32:35.437Z,15.20
2019-04-29T11:35:06.187Z,15.20
2019-04-29T11:37:34.744Z,15.20
2019-04-29T11:40:04.727Z,15.10
2019-04-29T11:42:36.742Z,15.10
2019-04-29T11:45:05.456Z,15.00
2019-04-29T11:47:33.903Z,15.00
2019-04-29T11:50:07.664Z,14.90
2019-04-29T11:52:34.330Z,14.90
2019-04-29T11:55:03.460Z,14.90
2019-04-29T11:57:41.044Z,14.90
2019-04-29T12:00:24.366Z,14.90
2019-04-29T12:02:57.556Z,14.80
2019-04-29T12:05:27.807Z,14.80
2019-04-29T12:07:56.246Z,14.80
2019-04-29T12:10:24.892Z,14.80
2019-04-29T12:12:53.414Z,14.70
2019-04-29T12:15:23.596Z,14.70
2019-04-29T12:18:10.297Z,14.70
2019-04-29T12:20:49.247Z,14.70
2019-04-29T12:23:17.780Z,14.60
2019-04-29T12:25:46.222Z,14.60
2019-04-29T12:28:19.248Z,14.50
2019-04-29T12:30:46.784Z,14.50
2019-04-29T12:33:20.029Z,14.40
2019-04-29T12:35:51.885Z,14.40
2019-04-29T12:38:40.096Z,14.30
2019-04-29T12:41:20.530Z,14.20
2019-04-29T12:43:48.509Z,14.10
2019-04-29T12:46:25.409Z,14.10
2019-04-29T12:48:53.892Z,14.00
2019-04-29T12:51:22.494Z,13.90
2019-04-29T12:53:51.016Z,13.90
2019-04-29T12:56:21.222Z,13.90
2019-04-29T12:58:50.631Z,13.80
2019-04-29T13:01:23.676Z,13.80
2019-04-29T13:03:53.841Z,13.80
2019-04-29T13:06:38.827Z,13.60
2019-04-29T13:09:01.513Z,13.60
2019-04-29T13:11:37.565Z,13.50
2019-04-29T13:14:01.821Z,13.40
2019-04-29T13:16:33.772Z,13.40
2019-04-29T13:19:12.295Z,13.40
2019-04-29T13:21:39.364Z,13.40
2019-04-29T13:24:21.780Z,13.40
2019-04-29T13:26:42.269Z,13.40
2019-04-29T13:29:07.785Z,13.30
2019-04-29T13:31:38.883Z,13.30
2019-04-29T13:34:22.975Z,13.30
2019-04-29T13:36:38.478Z,13.30
2019-04-29T13:39:08.655Z,13.30
2019-04-29T13:41:55.824Z,13.30
2019-04-29T13:44:07.903Z,13.30
2019-04-29T13:46:46.209Z,13.30
2019-04-29T13:49:18.514Z,13.30
2019-04-29T13:51:51.238Z,13.30
2019-04-29T13:54:19.708Z,13.30
2019-04-29T13:56:56.183Z,13.30
2019-04-29T13:59:20.062Z,13.20
2019-04-29T14:02:06.797Z,13.20
2019-04-29T14:04:40.194Z,13.20
2019-04-29T14:07:08.819Z,13.20
2019-04-29T14:09:39.463Z,13.20
2019-04-29T14:12:46.640Z,13.20
2019-04-29T14:14:37.785Z,13.20
2019-04-29T14:17:24.871Z,13.20
2019-04-29T14:19:42.535Z,13.20
2019-04-29T14:22:21.550Z,13.20
2019-04-29T14:24:38.443Z,13.20
2019-04-29T14:27:07.076Z,13.20
2019-04-29T14:29:35.533Z,13.30
2019-04-29T14:32:04.321Z,13.20
2019-04-29T14:37:19.852Z,13.20
2019-04-29T14:42:09.247Z,13.20
2019-04-29T14:44:54.225Z,13.30
2019-04-29T14:47:24.409Z,13.30
2019-04-29T14:50:03.213Z,13.30
2019-04-29T14:52:31.667Z,13.20
2019-04-29T14:55:00.197Z,13.30
2019-04-29T14:57:28.710Z,13.30
2019-04-29T14:59:57.401Z,13.30
2019-04-29T15:02:27.242Z,13.30
2019-04-29T15:04:55.838Z,13.30
2019-04-29T15:07:24.395Z,13.40
2019-04-29T15:09:57.542Z,13.40
2019-04-29T15:12:29.561Z,13.40
2019-04-29T15:15:05.429Z,13.40
2019-04-29T15:17:40.303Z,13.40
2019-04-29T15:20:10.509Z,13.50
2019-04-29T15:22:42.463Z,13.50
2019-04-29T15:25:11.884Z,13.50
2019-04-29T15:27:40.315Z,13.50
2019-04-29T15:30:09.507Z,13.60
2019-04-29T15:32:37.951Z,13.60
2019-04-29T15:35:07.199Z,13.60
2019-04-29T15:37:35.729Z,13.60
2019-04-29T15:40:06.018Z,13.60
2019-04-29T15:42:37.813Z,13.60
2019-04-29T15:45:07.234Z,13.70
2019-04-29T15:47:35.816Z,13.70
2019-04-29T15:50:18.141Z,13.70
2019-04-29T15:52:38.328Z,13.70
2019-04-29T15:55:07.904Z,13.70
2019-04-29T15:57:36.645Z,13.70
2019-04-29T16:02:40.992Z,13.60
2019-04-29T16:05:16.917Z,13.70
2019-04-29T16:07:51.613Z,13.70
2019-04-29T16:10:36.678Z,13.70
2019-04-29T16:13:09.688Z,13.70
2019-04-29T16:15:38.309Z,13.70
2019-04-29T16:18:10.688Z,13.70
2019-04-29T16:20:37.365Z,13.70
2019-04-29T16:23:05.973Z,13.70
2019-04-29T16:28:04.750Z,13.70
2019-04-29T16:30:33.769Z,13.70
2019-04-29T16:33:13.029Z,13.70
2019-04-29T16:35:34.934Z,13.70
2019-04-29T16:38:05.558Z,13.60
2019-04-29T16:40:39.272Z,13.70
2019-04-29T16:43:15.957Z,13.70
2019-04-29T16:45:51.527Z,13.70
2019-04-29T16:48:19.708Z,13.70
2019-04-29T16:50:48.359Z,13.70
2019-04-29T16:53:16.852Z,13.70
2019-04-29T16:55:45.393Z,13.80
2019-04-29T16:58:17.954Z,13.70
2019-04-29T17:03:14.488Z,13.80
2019-04-29T17:05:43.067Z,13.70
2019-04-29T17:08:15.175Z,13.80
2019-04-29T17:10:44.122Z,13.70
2019-04-29T17:13:16.811Z,13.80
2019-04-29T17:15:44.466Z,13.80
2019-04-29T17:18:13.534Z,13.80
2019-04-29T17:20:42.122Z,13.80
2019-04-29T17:23:10.662Z,13.80
2019-04-29T17:25:39.214Z,13.80
2019-04-29T17:28:24.097Z,13.80
2019-04-29T17:31:11.915Z,13.80
2019-04-29T17:33:36.341Z,13.80
2019-04-29T17:35:15.455Z,13.60
2019-04-29T17:35:15.681Z,13.70
2019-04-29T17:35:15.989Z,13.80
2019-04-29T17:36:05.828Z,13.80
2019-04-29T17:38:34.271Z,13.80
2019-04-29T17:41:02.815Z,13.80
2019-04-29T17:43:42.917Z,13.80
2019-04-29T17:46:10.652Z,13.80
2019-04-29T17:48:43.336Z,13.80
2019-04-29T17:51:12.637Z,13.80
2019-04-29T17:53:46.068Z,13.80
2019-04-29T17:56:19.498Z,13.70
2019-04-29T17:58:51.787Z,13.70
2019-04-29T18:01:23.714Z,13.70
2019-04-29T18:03:56.313Z,13.70
2019-04-29T18:06:28.187Z,13.70
2019-04-29T18:09:04.973Z,13.80
2019-04-29T18:11:33.624Z,13.70
2019-04-29T18:14:02.170Z,13.70
2019-04-29T18:16:32.272Z,13.80
2019-04-29T18:19:11.065Z,13.70
2019-04-29T18:21:57.194Z,13.70
2019-04-29T18:24:39.011Z,13.70
2019-04-29T18:27:11.768Z,13.70
2019-04-29T18:29:41.657Z,13.70
2019-04-29T18:32:10.460Z,13.70
2019-04-29T18:34:38.930Z,13.70
2019-04-29T18:37:07.372Z,13.70
2019-04-29T18:39:35.834Z,13.70
2019-04-29T18:42:06.666Z,13.70
2019-04-29T18:44:35.752Z,13.70
2019-04-29T18:47:05.551Z,13.70
2019-04-29T18:49:34.239Z,13.70
2019-04-29T18:52:05.679Z,13.70
2019-04-29T18:54:33.034Z,13.70
2019-04-29T18:57:01.581Z,13.70
2019-04-29T18:59:33.320Z,13.70
2019-04-29T19:02:00.907Z,13.70
2019-04-29T19:07:06.378Z,13.70
2019-04-29T19:09:37.140Z,13.80
2019-04-29T19:12:06.025Z,13.70
2019-04-29T19:14:35.310Z,13.70
2019-04-29T19:17:04.896Z,13.70
2019-04-29T19:19:37.817Z,13.70
2019-04-29T19:22:05.765Z,13.70
2019-04-29T19:24:36.462Z,13.80
2019-04-29T19:27:09.077Z,13.70
2019-04-29T19:29:34.631Z,13.70
2019-04-29T19:32:05.242Z,13.70
2019-04-29T19:34:42.217Z,13.70
2019-04-29T19:37:05.050Z,13.70
2019-04-29T19:39:34.926Z,13.80
2019-04-29T19:42:05.553Z,13.80
2019-04-29T19:44:36.692Z,13.70
2019-04-29T19:47:04.109Z,13.80
2019-04-29T19:49:32.592Z,13.70
2019-04-29T19:52:01.077Z,13.80
2019-04-29T19:54:29.560Z,13.80
2019-04-29T19:57:03.230Z,13.80
2019-04-29T19:59:31.345Z,13.80
2019-04-29T20:02:05.254Z,13.80
2019-04-29T20:04:38.281Z,13.80
2019-04-29T20:07:10.103Z,13.80
2019-04-29T20:09:38.570Z,13.80
2019-04-29T20:12:12.686Z,13.80
2019-04-29T20:14:38.107Z,13.80
2019-04-29T20:17:20.730Z,13.80
2019-04-29T20:20:09.101Z,13.80
2019-04-29T20:22:43.439Z,13.80
2019-04-29T20:25:08.506Z,13.70
2019-04-29T20:27:37.737Z,13.70
2019-04-29T20:30:16.543Z,13.80
2019-04-29T20:32:39.570Z,13.70
2019-04-29T20:35:09.466Z,13.80
2019-04-29T20:37:38.161Z,13.80
2019-04-29T20:40:07.673Z,13.80
2019-04-29T20:42:40.453Z,13.80
2019-04-29T20:45:08.489Z,13.80
2019-04-29T20:47:40.499Z,13.80
2019-04-29T20:50:13.541Z,13.80
2019-04-29T20:52:59.082Z,13.80
2019-04-29T20:55:22.780Z,13.80
2019-04-29T20:57:52.493Z,13.80
2019-04-29T21:00:25.046Z,13.80
2019-04-29T21:02:52.364Z,13.70
2019-04-29T21:05:24.578Z,13.70
2019-04-29T21:08:02.588Z,13.70
2019-04-29T21:10:22.904Z,13.70
2019-04-29T21:13:16.037Z,13.70
2019-04-29T21:15:52.140Z,13.70
2019-04-29T21:18:17.706Z,13.70
2019-04-29T21:23:14.472Z,13.60
2019-04-29T21:25:42.926Z,13.60
2019-04-29T21:28:11.388Z,13.60
2019-04-29T21:30:42.710Z,13.70
2019-04-29T21:33:18.210Z,13.70
2019-04-29T21:38:22.233Z,13.70
2019-04-29T21:40:56.039Z,13.70
2019-04-29T21:43:26.209Z,13.70
2019-04-29T21:45:55.636Z,13.70
2019-04-29T21:48:33.121Z,13.70
2019-04-29T21:50:54.549Z,13.70
2019-04-29T21:53:24.791Z,13.70
2019-04-29T21:55:53.226Z,13.70
2019-04-29T21:58:21.687Z,13.70
2019-04-29T22:00:55.994Z,13.80
2019-04-29T22:03:26.589Z,13.70
2019-04-29T22:05:53.550Z,13.80
2019-04-29T22:08:27.139Z,13.80
2019-04-29T22:10:51.870Z,13.80
2019-04-29T22:13:20.308Z,13.80
2019-04-29T22:15:48.748Z,13.80
2019-04-29T22:18:18.093Z,13.80
2019-04-29T22:20:46.785Z,13.80
2019-04-29T22:23:17.229Z,13.80
2019-04-29T22:25:47.054Z,13.80
2019-04-29T22:28:19.528Z,13.80
2019-04-29T22:30:49.799Z,13.80
2019-04-29T22:33:16.250Z,13.80
2019-04-29T22:35:45.242Z,13.70
2019-04-29T22:38:16.258Z,13.70
2019-04-29T22:40:45.207Z,13.80
2019-04-29T22:43:33.770Z,13.70
2019-04-29T22:46:04.839Z,13.70
2019-04-29T22:48:32.456Z,13.70
2019-04-29T22:51:00.938Z,13.70
2019-04-29T22:53:29.498Z,13.80
2019-04-29T22:55:57.950Z,13.70
2019-04-29T22:58:26.422Z,13.80
2019-04-29T23:00:54.891Z,13.80
2019-04-29T23:03:23.338Z,13.80
2019-04-29T23:05:51.892Z,13.80
2019-04-29T23:08:20.350Z,13.80
2019-04-29T23:10:48.832Z,13.80
2019-04-29T23:13:17.286Z,13.80
2019-04-29T23:15:45.835Z,13.80
2019-04-29T23:18:24.365Z,13.80
2019-04-29T23:20:46.108Z,13.80
2019-04-29T23:23:27.303Z,13.80
2019-04-29T23:25:55.740Z,13.80
2019-04-29T23:28:26.812Z,13.80
2019-04-29T23:30:54.452Z,13.90
2019-04-29T23:33:24.069Z,13.90
2019-04-29T23:35:53.107Z,13.90
2019-04-29T23:38:21.644Z,13.90
2019-04-29T23:40:54.467Z,13.90
2019-04-29T23:43:25.380Z,13.90
2019-04-29T23:45:51.880Z,14.00
2019-04-29T23:48:23.897Z,13.90
2019-04-29T23:50:54.683Z,13.90
2019-04-29T23:53:25.202Z,13.90
2019-04-29T23:55:52.834Z,13.90
2019-04-29T23:58:22.919Z,13.90
